createdAt,value
2016-11-17T00:00:45.512Z,0
2016-11-17T00:01:58.561Z,0
2016-11-17T00:03:10.569Z,0
2016-11-17T00:04:22.049Z,0
2016-11-17T00:05:34.545Z,0
2016-11-17T00:06:47.040Z,0
2016-11-17T00:07:59.515Z,0
2016-11-17T00:09:12.552Z,0
2016-11-17T00:10:25.076Z,0
2016-11-17T00:11:38.158Z,0
2016-11-17T00:12:50.730Z,0
2016-11-17T00:14:03.189Z,0
2016-11-17T00:15:15.695Z,0
2016-11-17T00:16:29.256Z,0
2016-11-17T00:17:41.785Z,0
2016-11-17T00:18:54.309Z,0
2016-11-17T00:20:06.955Z,0
2016-11-17T00:21:19.447Z,0
2016-11-17T00:22:32.654Z,0
2016-11-17T00:23:46.201Z,0
2016-11-17T00:24:59.764Z,0
2016-11-17T00:26:12.402Z,0
2016-11-17T00:27:24.985Z,0
2016-11-17T00:28:38.044Z,0
2016-11-17T00:29:50.069Z,0
2016-11-17T00:31:03.707Z,0
2016-11-17T00:32:16.196Z,0
2016-11-17T00:33:29.381Z,0
2016-11-17T00:34:41.956Z,0
2016-11-17T00:35:53.912Z,0
2016-11-17T00:37:05.953Z,0
2016-11-17T00:38:19.546Z,0
2016-11-17T00:39:31.490Z,0
2016-11-17T00:40:43.480Z,0
2016-11-17T00:41:56.070Z,0
2016-11-17T00:43:09.595Z,0
2016-11-17T00:44:21.694Z,0
2016-11-17T00:45:34.801Z,0
2016-11-17T00:46:47.825Z,0
2016-11-17T00:47:59.817Z,0
2016-11-17T00:49:12.363Z,0
2016-11-17T00:50:24.889Z,0
2016-11-17T00:51:37.956Z,0
2016-11-17T00:52:50.545Z,0
2016-11-17T00:54:03.676Z,0
2016-11-17T00:55:16.770Z,0
2016-11-17T00:56:29.365Z,0
2016-11-17T00:57:41.982Z,0
2016-11-17T00:58:54.455Z,0
2016-11-17T01:00:07.521Z,0
2016-11-17T01:01:20.614Z,0
2016-11-17T01:02:32.661Z,0
2016-11-17T01:03:44.212Z,0
2016-11-17T01:04:56.717Z,0
2016-11-17T01:06:10.318Z,0
2016-11-17T01:07:23.375Z,0
2016-11-17T01:08:36.424Z,0
2016-11-17T01:09:48.964Z,0
2016-11-17T01:11:02.571Z,0
2016-11-17T01:12:16.149Z,0
2016-11-17T01:13:29.657Z,0
2016-11-17T01:14:41.108Z,0
2016-11-17T01:15:54.728Z,0
2016-11-17T01:17:07.271Z,0
2016-11-17T01:18:20.812Z,0
2016-11-17T01:19:33.831Z,0
2016-11-17T01:20:46.948Z,0
2016-11-17T01:21:59.448Z,0
2016-11-17T01:23:13.147Z,0
2016-11-17T01:24:26.201Z,0
2016-11-17T01:25:38.806Z,0
2016-11-17T01:26:51.940Z,0
2016-11-17T01:28:04.995Z,0
2016-11-17T01:29:18.062Z,0
2016-11-17T01:30:30.653Z,0
2016-11-17T01:31:43.181Z,0
2016-11-17T01:32:56.293Z,0
2016-11-17T01:34:09.900Z,0
2016-11-17T01:35:23.670Z,0
2016-11-17T01:36:37.374Z,0
2016-11-17T01:37:49.345Z,0
2016-11-17T01:39:02.365Z,0
2016-11-17T01:40:13.809Z,0
2016-11-17T01:41:27.369Z,0
2016-11-17T01:43:12.105Z,0
2016-11-17T01:44:25.097Z,0
2016-11-17T01:45:38.146Z,0
2016-11-17T01:46:50.715Z,0
2016-11-17T01:48:03.725Z,0
2016-11-17T01:49:16.733Z,0
2016-11-17T01:50:29.770Z,0
2016-11-17T01:51:43.251Z,0
2016-11-17T01:52:56.239Z,0
2016-11-17T01:54:09.749Z,0
2016-11-17T01:55:22.824Z,0
2016-11-17T01:56:35.871Z,0
2016-11-17T01:57:49.438Z,0
2016-11-17T01:59:01.990Z,0
2016-11-17T02:00:15.011Z,0
2016-11-17T02:01:27.544Z,0
2016-11-17T02:02:40.592Z,0
2016-11-17T02:03:53.590Z,0
2016-11-17T02:05:06.022Z,0
2016-11-17T02:06:18.500Z,0
2016-11-17T02:07:31.020Z,0
2016-11-17T02:08:44.071Z,0
2016-11-17T02:09:57.130Z,0
2016-11-17T02:11:09.136Z,0
2016-11-17T02:12:21.114Z,0
2016-11-17T02:13:34.179Z,0
2016-11-17T02:14:46.695Z,0
2016-11-17T02:16:00.304Z,0
2016-11-17T02:17:13.286Z,0
2016-11-17T02:18:26.379Z,0
2016-11-17T02:19:39.475Z,0
2016-11-17T02:20:52.003Z,0
2016-11-17T02:22:05.590Z,0
2016-11-17T02:23:18.615Z,0
2016-11-17T02:24:30.608Z,0
2016-11-17T02:25:43.115Z,0
2016-11-17T02:26:56.117Z,0
2016-11-17T02:28:09.130Z,0
2016-11-17T02:29:21.621Z,0
2016-11-17T02:30:34.133Z,0
2016-11-17T02:31:46.138Z,0
2016-11-17T02:32:58.110Z,0
2016-11-17T02:34:10.629Z,0
2016-11-17T02:35:22.539Z,0
2016-11-17T02:36:35.034Z,0
2016-11-17T02:37:48.095Z,0
2016-11-17T02:39:00.607Z,0
2016-11-17T02:40:13.582Z,0
2016-11-17T02:41:26.105Z,0
2016-11-17T02:42:39.725Z,0
2016-11-17T02:43:52.751Z,0
2016-11-17T02:45:04.215Z,0
2016-11-17T02:46:17.143Z,0
2016-11-17T02:47:30.697Z,0
2016-11-17T02:48:44.271Z,0
2016-11-17T02:49:57.378Z,0
2016-11-17T02:51:10.405Z,0
2016-11-17T02:52:22.991Z,0
2016-11-17T02:53:35.484Z,0
2016-11-17T02:54:48.011Z,0
2016-11-17T02:56:00.477Z,0
2016-11-17T02:57:12.450Z,0
2016-11-17T02:58:26.051Z,0
2016-11-17T02:59:39.636Z,0
2016-11-17T03:00:52.154Z,0
2016-11-17T03:02:04.205Z,0
2016-11-17T03:03:16.712Z,0
2016-11-17T03:04:29.757Z,0
2016-11-17T03:05:41.173Z,0
2016-11-17T03:06:53.740Z,0
2016-11-17T03:08:07.321Z,0
2016-11-17T03:09:20.371Z,0
2016-11-17T03:10:31.823Z,0
2016-11-17T03:11:43.771Z,0
2016-11-17T03:12:56.786Z,0
2016-11-17T03:14:09.854Z,0
2016-11-17T03:15:22.949Z,0
2016-11-17T03:16:35.477Z,0
2016-11-17T03:17:47.429Z,0
2016-11-17T03:18:59.441Z,0
2016-11-17T03:20:10.931Z,0
2016-11-17T03:21:23.420Z,0
2016-11-17T03:22:35.957Z,0
2016-11-17T03:23:48.995Z,0
2016-11-17T03:25:00.964Z,0
2016-11-17T03:26:13.984Z,0
2016-11-17T03:27:27.514Z,0
2016-11-17T03:28:40.030Z,0
2016-11-17T03:29:52.569Z,0
2016-11-17T03:31:06.100Z,0
2016-11-17T03:32:50.222Z,0
2016-11-17T03:34:03.258Z,0
2016-11-17T03:35:16.808Z,0
2016-11-17T03:36:30.382Z,0
2016-11-17T03:37:43.419Z,0
2016-11-17T03:38:55.939Z,0
2016-11-17T03:40:09.545Z,0
2016-11-17T03:41:22.598Z,0
2016-11-17T03:42:35.068Z,0
2016-11-17T03:44:19.732Z,0
2016-11-17T03:45:32.809Z,0
2016-11-17T03:46:45.323Z,0
2016-11-17T03:47:58.917Z,0
2016-11-17T03:49:11.441Z,0
2016-11-17T03:50:23.407Z,0
2016-11-17T03:51:35.960Z,0
2016-11-17T03:52:47.373Z,0
2016-11-17T03:54:00.574Z,0
2016-11-17T03:55:14.136Z,0
2016-11-17T03:56:27.746Z,0
2016-11-17T03:57:40.282Z,0
2016-11-17T03:58:52.824Z,0
2016-11-17T04:00:05.306Z,0
2016-11-17T04:01:17.805Z,0
2016-11-17T04:02:30.871Z,0
2016-11-17T04:03:43.406Z,0
2016-11-17T04:04:56.480Z,0
2016-11-17T04:06:10.053Z,0
2016-11-17T04:07:23.105Z,0
2016-11-17T04:08:35.693Z,0
2016-11-17T04:09:48.243Z,0
2016-11-17T04:11:01.254Z,0
2016-11-17T04:12:14.289Z,0
2016-11-17T04:13:27.883Z,0
2016-11-17T04:14:39.864Z,0
2016-11-17T04:16:23.464Z,0
2016-11-17T04:17:37.005Z,0
2016-11-17T04:18:49.504Z,0
2016-11-17T04:20:01.991Z,0
2016-11-17T04:21:13.989Z,0
2016-11-17T04:22:26.995Z,0
2016-11-17T04:23:40.044Z,0
2016-11-17T04:24:52.548Z,0
2016-11-17T04:26:05.064Z,0
2016-11-17T04:27:17.514Z,0
2016-11-17T04:28:31.120Z,0
2016-11-17T04:29:44.222Z,0
2016-11-17T04:30:57.746Z,0
2016-11-17T04:32:10.286Z,0
2016-11-17T04:33:22.291Z,0
2016-11-17T04:34:34.794Z,0
2016-11-17T04:35:47.330Z,0
2016-11-17T04:37:00.832Z,0
2016-11-17T04:38:13.906Z,0
2016-11-17T04:39:25.935Z,0
2016-11-17T04:40:38.920Z,0
2016-11-17T04:41:52.472Z,0
2016-11-17T04:43:04.448Z,0
2016-11-17T04:44:17.558Z,0
2016-11-17T04:45:31.129Z,0
2016-11-17T04:48:27.783Z,0
2016-11-17T04:49:40.287Z,0
2016-11-17T04:50:53.830Z,0
2016-11-17T04:52:06.878Z,0
2016-11-17T04:53:18.847Z,0
2016-11-17T04:54:30.856Z,0
2016-11-17T04:55:43.892Z,0
2016-11-17T04:56:57.432Z,0
2016-11-17T04:58:09.383Z,0
2016-11-17T04:59:22.912Z,0
2016-11-17T05:00:35.466Z,0
2016-11-17T05:02:20.147Z,0
2016-11-17T05:03:33.724Z,0
2016-11-17T05:04:46.756Z,0
2016-11-17T05:06:00.288Z,0
2016-11-17T05:07:13.875Z,0
2016-11-17T05:08:26.368Z,0
2016-11-17T05:09:39.898Z,0
2016-11-17T05:10:52.901Z,0
2016-11-17T05:12:05.940Z,0
2016-11-17T05:13:18.950Z,0
2016-11-17T05:14:30.448Z,0
2016-11-17T05:15:43.471Z,0
2016-11-17T05:16:56.564Z,0
2016-11-17T05:18:09.592Z,0
2016-11-17T05:19:53.212Z,0
2016-11-17T05:21:06.846Z,0
2016-11-17T05:22:19.372Z,0
2016-11-17T05:23:32.400Z,0
2016-11-17T05:24:45.975Z,0
2016-11-17T05:25:58.968Z,0
2016-11-17T05:27:12.579Z,0
2016-11-17T05:28:25.105Z,0
2016-11-17T05:29:38.682Z,0
2016-11-17T05:30:51.790Z,0
2016-11-17T05:32:05.402Z,0
2016-11-17T05:33:18.988Z,0
2016-11-17T05:34:32.481Z,0
2016-11-17T05:35:46.029Z,0
2016-11-17T05:36:58.093Z,0
2016-11-17T05:38:11.671Z,0
2016-11-17T05:39:24.215Z,0
2016-11-17T05:40:37.822Z,0
2016-11-17T05:41:51.448Z,0
2016-11-17T05:43:04.455Z,0
2016-11-17T05:44:17.959Z,0
2016-11-17T05:45:31.546Z,0
2016-11-17T05:46:45.093Z,0
2016-11-17T05:47:58.081Z,0
2016-11-17T05:49:10.580Z,0
2016-11-17T05:50:24.166Z,0
2016-11-17T05:51:37.211Z,0
2016-11-17T05:52:50.207Z,0
2016-11-17T05:54:03.803Z,0
2016-11-17T05:55:16.291Z,0
2016-11-17T05:56:29.338Z,0
2016-11-17T05:57:42.387Z,0
2016-11-17T05:58:55.414Z,0
2016-11-17T06:00:08.373Z,0
2016-11-17T06:01:20.891Z,0
2016-11-17T06:02:34.467Z,0
2016-11-17T06:03:45.986Z,0
2016-11-17T06:04:58.534Z,0
2016-11-17T06:06:12.158Z,0
2016-11-17T06:07:24.656Z,0
2016-11-17T06:08:37.698Z,0
2016-11-17T06:09:51.177Z,0
2016-11-17T06:11:04.231Z,0
2016-11-17T06:12:16.735Z,0
2016-11-17T06:13:28.720Z,0
2016-11-17T06:14:41.815Z,0
2016-11-17T06:15:55.452Z,0
2016-11-17T06:17:08.502Z,0
2016-11-17T06:18:21.030Z,0
2016-11-17T06:19:34.037Z,0
2016-11-17T06:20:46.497Z,0
2016-11-17T06:21:58.980Z,0
2016-11-17T06:23:12.518Z,0
2016-11-17T06:24:25.545Z,0
2016-11-17T06:25:39.140Z,0
2016-11-17T06:26:52.157Z,0
2016-11-17T06:28:05.690Z,0
2016-11-17T06:29:18.299Z,0
2016-11-17T06:30:31.328Z,0
2016-11-17T06:32:14.931Z,0
2016-11-17T06:33:27.912Z,0
2016-11-17T06:34:40.932Z,0
2016-11-17T06:35:54.505Z,0
2016-11-17T06:37:07.062Z,0
2016-11-17T06:38:20.677Z,0
2016-11-17T06:39:34.214Z,0
2016-11-17T06:40:47.808Z,0
2016-11-17T06:42:00.821Z,0
2016-11-17T06:43:13.369Z,0
2016-11-17T06:44:26.463Z,0
2016-11-17T06:45:38.964Z,0
2016-11-17T06:46:52.640Z,0
2016-11-17T06:48:05.657Z,0
2016-11-17T06:49:18.171Z,0
2016-11-17T06:50:31.187Z,0
2016-11-17T06:51:42.614Z,0
2016-11-17T06:52:55.684Z,0
2016-11-17T06:54:09.281Z,0
2016-11-17T06:55:22.829Z,0
2016-11-17T06:56:36.396Z,0
2016-11-17T06:57:49.437Z,0
2016-11-17T06:59:02.949Z,0
2016-11-17T07:00:15.420Z,0
2016-11-17T07:01:28.441Z,0
2016-11-17T07:02:40.967Z,0
2016-11-17T07:03:54.016Z,0
2016-11-17T07:05:07.102Z,0
2016-11-17T07:06:19.583Z,0
2016-11-17T07:07:32.645Z,0
2016-11-17T07:08:45.707Z,0
2016-11-17T07:09:59.330Z,0
2016-11-17T07:11:12.310Z,0
2016-11-17T07:12:25.408Z,0
2016-11-17T07:13:38.435Z,0
2016-11-17T07:14:50.353Z,0
2016-11-17T07:16:03.505Z,0
2016-11-17T07:19:00.698Z,0
2016-11-17T07:20:13.718Z,0
2016-11-17T07:21:26.247Z,0
2016-11-17T07:22:39.242Z,0
2016-11-17T07:23:52.813Z,0
2016-11-17T07:25:06.418Z,0
2016-11-17T07:26:18.407Z,0
2016-11-17T07:27:31.432Z,0
2016-11-17T07:28:45.048Z,0
2016-11-17T07:29:58.640Z,0
2016-11-17T07:31:43.333Z,0
2016-11-17T07:32:56.379Z,0
2016-11-17T07:34:08.867Z,0
2016-11-17T07:35:21.338Z,0
2016-11-17T07:36:34.888Z,0
2016-11-17T07:37:47.976Z,0
2016-11-17T07:39:01.562Z,0
2016-11-17T07:40:14.547Z,0
2016-11-17T07:41:28.102Z,0
2016-11-17T07:42:41.161Z,0
2016-11-17T07:43:53.590Z,0
2016-11-17T07:45:06.587Z,0
2016-11-17T07:46:18.041Z,0
2016-11-17T07:47:30.530Z,0
2016-11-17T07:48:44.043Z,4
2016-11-17T07:49:57.596Z,4
2016-11-17T07:51:10.073Z,4
2016-11-17T07:52:22.567Z,0
2016-11-17T07:53:35.077Z,4
2016-11-17T07:54:47.586Z,4
2016-11-17T07:56:00.102Z,4
2016-11-17T07:57:13.679Z,4
2016-11-17T07:58:27.257Z,4
2016-11-17T08:00:10.321Z,8
2016-11-17T08:01:23.868Z,8
2016-11-17T08:02:36.969Z,8
2016-11-17T08:03:50.525Z,12
2016-11-17T08:05:03.579Z,16
2016-11-17T08:06:16.033Z,16
2016-11-17T08:07:29.058Z,20
2016-11-17T08:08:41.589Z,28
2016-11-17T08:09:54.808Z,40
2016-11-17T08:11:08.381Z,44
2016-11-17T08:12:21.424Z,48
2016-11-17T08:13:33.938Z,56
2016-11-17T08:14:46.956Z,60
2016-11-17T08:15:59.938Z,72
2016-11-17T08:17:12.459Z,84
2016-11-17T08:18:25.013Z,96
2016-11-17T08:20:09.158Z,108
2016-11-17T08:21:22.198Z,120
2016-11-17T08:22:36.118Z,128
2016-11-17T08:23:49.694Z,144
2016-11-17T08:25:34.421Z,168
2016-11-17T08:26:47.735Z,196
2016-11-17T08:28:00.845Z,224
2016-11-17T08:29:13.882Z,252
2016-11-17T08:30:26.905Z,268
2016-11-17T08:31:40.498Z,280
2016-11-17T08:32:53.583Z,304
2016-11-17T08:34:05.075Z,348
2016-11-17T08:35:18.140Z,432
2016-11-17T08:36:31.179Z,568
2016-11-17T08:37:44.219Z,712
2016-11-17T08:38:57.749Z,824
2016-11-17T08:40:10.806Z,988
2016-11-17T08:41:23.884Z,1180
2016-11-17T08:42:37.500Z,1288
2016-11-17T08:43:50.546Z,1280
2016-11-17T08:45:03.638Z,1164
2016-11-17T08:46:16.145Z,1096
2016-11-17T08:47:29.171Z,1456
2016-11-17T08:48:42.723Z,2332
2016-11-17T08:49:54.679Z,2760
2016-11-17T08:51:07.810Z,4712
2016-11-17T08:52:20.812Z,4976
2016-11-17T08:53:34.436Z,4308
2016-11-17T08:54:47.489Z,3932
2016-11-17T08:56:00.552Z,3056
2016-11-17T08:57:44.745Z,2672
2016-11-17T08:58:57.806Z,2448
2016-11-17T09:00:10.337Z,2476
2016-11-17T09:01:23.374Z,2172
2016-11-17T09:02:36.413Z,1548
2016-11-17T09:03:48.952Z,1368
2016-11-17T09:05:01.433Z,1292
2016-11-17T09:06:14.545Z,1152
2016-11-17T09:07:27.640Z,1144
2016-11-17T09:08:40.169Z,1184
2016-11-17T09:09:53.237Z,1156
2016-11-17T09:11:05.719Z,1156
2016-11-17T09:12:19.287Z,1216
2016-11-17T09:13:32.944Z,1284
2016-11-17T09:14:44.931Z,1428
2016-11-17T09:15:58.002Z,1756
2016-11-17T09:17:11.007Z,2204
2016-11-17T09:18:24.048Z,2152
2016-11-17T09:19:37.140Z,2008
2016-11-17T09:20:50.685Z,2040
2016-11-17T09:22:04.223Z,2208
2016-11-17T09:23:17.323Z,2376
2016-11-17T09:24:30.428Z,2544
2016-11-17T09:25:43.489Z,2856
2016-11-17T09:26:57.111Z,3240
2016-11-17T09:28:10.116Z,3368
2016-11-17T09:29:23.117Z,3588
2016-11-17T09:30:35.595Z,3928
2016-11-17T09:31:48.060Z,4200
2016-11-17T09:33:01.692Z,4364
2016-11-17T09:34:15.263Z,4316
2016-11-17T09:35:28.834Z,4472
2016-11-17T09:36:41.300Z,4640
2016-11-17T09:37:53.310Z,4348
2016-11-17T09:39:05.230Z,4372
2016-11-17T09:40:18.779Z,5008
2016-11-17T09:41:32.336Z,6024
2016-11-17T09:42:44.849Z,6248
2016-11-17T09:43:58.451Z,6344
2016-11-17T09:45:10.945Z,6452
2016-11-17T09:46:23.403Z,7208
2016-11-17T09:47:36.978Z,8628
2016-11-17T09:48:48.988Z,9988
2016-11-17T09:50:02.055Z,10132
2016-11-17T09:51:15.604Z,8840
2016-11-17T09:52:28.085Z,7224
2016-11-17T09:53:41.686Z,6084
2016-11-17T09:54:53.738Z,4920
2016-11-17T09:56:07.341Z,4124
2016-11-17T09:57:19.827Z,3432
2016-11-17T09:58:32.803Z,2908
2016-11-17T09:59:45.881Z,2600
2016-11-17T10:00:57.918Z,2448
2016-11-17T10:02:10.486Z,2376
2016-11-17T10:03:22.941Z,2372
2016-11-17T10:04:34.924Z,2408
2016-11-17T10:05:47.450Z,2376
2016-11-17T10:07:00.470Z,2312
2016-11-17T10:08:12.469Z,2512
2016-11-17T10:09:25.558Z,2572
2016-11-17T10:10:38.547Z,2656
2016-11-17T10:11:50.508Z,2644
2016-11-17T10:13:03.066Z,2628
2016-11-17T10:14:16.112Z,2724
2016-11-17T10:15:29.666Z,2944
2016-11-17T10:16:42.154Z,3248
2016-11-17T10:17:54.672Z,3628
2016-11-17T10:19:07.636Z,3996
2016-11-17T10:20:21.254Z,4340
2016-11-17T10:21:33.803Z,4648
2016-11-17T10:22:46.820Z,4848
2016-11-17T10:24:00.475Z,4952
2016-11-17T10:25:11.895Z,5292
2016-11-17T10:26:23.334Z,5344
2016-11-17T10:27:36.324Z,5200
2016-11-17T10:28:49.403Z,5096
2016-11-17T10:30:01.421Z,4844
2016-11-17T10:31:14.434Z,4444
2016-11-17T10:32:27.959Z,4232
2016-11-17T10:33:40.977Z,4236
2016-11-17T10:34:52.950Z,4380
2016-11-17T10:36:04.876Z,4508
2016-11-17T10:37:18.424Z,4756
2016-11-17T10:38:31.947Z,5072
2016-11-17T10:39:45.523Z,5188
2016-11-17T10:40:59.018Z,5168
2016-11-17T10:42:11.596Z,5292
2016-11-17T10:43:24.614Z,5536
2016-11-17T10:44:37.121Z,5852
2016-11-17T10:45:49.662Z,6348
2016-11-17T10:47:03.256Z,6964
2016-11-17T10:48:16.359Z,7292
2016-11-17T10:49:29.304Z,8716
2016-11-17T10:50:42.788Z,13960
2016-11-17T10:51:55.304Z,12464
2016-11-17T10:53:07.284Z,14464
2016-11-17T10:54:20.345Z,15608
2016-11-17T10:55:32.864Z,17248
2016-11-17T10:56:45.364Z,18208
2016-11-17T10:57:57.370Z,16576
2016-11-17T10:59:10.958Z,13732
2016-11-17T11:00:24.542Z,12848
2016-11-17T11:01:37.093Z,13612
2016-11-17T11:02:50.618Z,15864
2016-11-17T11:04:04.169Z,17856
2016-11-17T11:05:17.303Z,15344
2016-11-17T11:06:29.727Z,13260
2016-11-17T11:07:42.264Z,14316
2016-11-17T11:08:55.843Z,18656
2016-11-17T11:10:08.882Z,22624
2016-11-17T11:11:21.910Z,26208
2016-11-17T11:12:33.894Z,30432
2016-11-17T11:13:45.902Z,37248
2016-11-17T11:14:58.933Z,35776
2016-11-17T11:16:12.463Z,37344
2016-11-17T11:17:25.500Z,33280
2016-11-17T11:18:37.529Z,34528
2016-11-17T11:19:50.080Z,53216
2016-11-17T11:21:03.131Z,52512
2016-11-17T11:22:15.655Z,54944
2016-11-17T11:23:27.620Z,56608
2016-11-17T11:24:40.604Z,57792
2016-11-17T11:25:53.096Z,56896
2016-11-17T11:27:05.632Z,57024
2016-11-17T11:28:18.070Z,57056
2016-11-17T11:29:31.639Z,55360
2016-11-17T11:30:44.186Z,55040
2016-11-17T11:31:57.228Z,52992
2016-11-17T11:33:40.831Z,54432
2016-11-17T11:34:53.817Z,55168
2016-11-17T11:36:05.849Z,56224
2016-11-17T11:37:17.819Z,56352
2016-11-17T11:38:30.893Z,55072
2016-11-17T11:39:43.371Z,53216
2016-11-17T11:40:56.487Z,49760
2016-11-17T11:42:09.590Z,30048
2016-11-17T11:43:22.123Z,21760
2016-11-17T11:44:34.631Z,29408
2016-11-17T11:45:47.630Z,52128
2016-11-17T11:47:01.323Z,52960
2016-11-17T11:48:14.407Z,53472
2016-11-17T11:49:27.501Z,52512
2016-11-17T11:50:41.026Z,51232
2016-11-17T11:51:54.098Z,48320
2016-11-17T11:53:06.611Z,47456
2016-11-17T11:54:19.585Z,41664
2016-11-17T11:55:31.064Z,38720
2016-11-17T11:56:43.490Z,47296
2016-11-17T11:57:56.101Z,47968
2016-11-17T12:00:53.273Z,47488
2016-11-17T12:02:05.839Z,47552
2016-11-17T12:03:17.864Z,47232
2016-11-17T12:04:30.491Z,47232
2016-11-17T12:05:43.575Z,47200
2016-11-17T12:06:56.609Z,46720
2016-11-17T12:08:09.624Z,45472
2016-11-17T12:09:22.216Z,44064
2016-11-17T12:10:35.310Z,44224
2016-11-17T12:11:48.364Z,43040
2016-11-17T12:13:00.902Z,42688
2016-11-17T12:14:13.977Z,41248
2016-11-17T12:15:27.535Z,40256
2016-11-17T12:16:40.084Z,40576
2016-11-17T12:17:53.177Z,39232
2016-11-17T12:19:06.229Z,38016
2016-11-17T12:20:19.273Z,38560
2016-11-17T12:21:32.343Z,36576
2016-11-17T12:22:44.871Z,37056
2016-11-17T12:23:56.892Z,36640
2016-11-17T12:25:10.653Z,35360
2016-11-17T12:26:23.194Z,35392
2016-11-17T12:27:35.690Z,33728
2016-11-17T12:28:48.314Z,31264
2016-11-17T12:30:00.367Z,31712
2016-11-17T12:31:13.422Z,31552
2016-11-17T12:32:25.924Z,31296
2016-11-17T12:33:38.524Z,30240
2016-11-17T12:34:50.015Z,29120
2016-11-17T12:36:02.530Z,28160
2016-11-17T12:37:14.466Z,27712
2016-11-17T12:38:28.077Z,27520
2016-11-17T12:39:40.661Z,26784
2016-11-17T12:40:52.665Z,20800
2016-11-17T12:42:05.752Z,24928
2016-11-17T12:43:18.281Z,26752
2016-11-17T12:44:30.224Z,27264
2016-11-17T12:45:41.665Z,28000
2016-11-17T12:46:54.207Z,26592
2016-11-17T12:48:06.696Z,26112
2016-11-17T12:49:19.766Z,26592
2016-11-17T12:50:33.326Z,25152
2016-11-17T12:51:46.953Z,24096
2016-11-17T12:52:59.993Z,13000
2016-11-17T12:54:12.474Z,22368
2016-11-17T12:55:24.414Z,22272
2016-11-17T12:56:36.360Z,16128
2016-11-17T12:57:49.390Z,21568
2016-11-17T12:59:01.409Z,22592
2016-11-17T13:00:13.383Z,22848
2016-11-17T13:01:25.351Z,22848
2016-11-17T13:02:38.394Z,21760
2016-11-17T13:03:50.367Z,19776
2016-11-17T13:05:02.468Z,18912
2016-11-17T13:06:16.067Z,19008
2016-11-17T13:07:28.041Z,19744
2016-11-17T13:08:40.023Z,20512
2016-11-17T13:09:51.417Z,18144
2016-11-17T13:11:04.528Z,13620
2016-11-17T13:12:16.526Z,19776
2016-11-17T13:13:29.014Z,19456
2016-11-17T13:14:42.614Z,16384
2016-11-17T13:15:54.635Z,18816
2016-11-17T13:17:07.144Z,10164
2016-11-17T13:18:19.705Z,10604
2016-11-17T13:19:32.225Z,16928
2016-11-17T13:20:45.786Z,14184
2016-11-17T13:21:57.251Z,12624
2016-11-17T13:23:09.807Z,17952
2016-11-17T13:24:22.322Z,18496
2016-11-17T13:25:35.421Z,17440
2016-11-17T13:26:47.950Z,18304
2016-11-17T13:27:59.959Z,18464
2016-11-17T13:29:13.041Z,17824
2016-11-17T13:30:26.107Z,17504
2016-11-17T13:31:39.107Z,17408
2016-11-17T13:32:51.610Z,17216
2016-11-17T13:34:04.146Z,16128
2016-11-17T13:35:16.634Z,16544
2016-11-17T13:36:30.265Z,16032
2016-11-17T13:37:43.334Z,16096
2016-11-17T13:38:55.383Z,16128
2016-11-17T13:40:08.958Z,15904
2016-11-17T13:41:22.055Z,15680
2016-11-17T13:42:35.158Z,15232
2016-11-17T13:43:47.137Z,15456
2016-11-17T13:45:00.191Z,15616
2016-11-17T13:46:44.835Z,16416
2016-11-17T13:48:28.452Z,16064
2016-11-17T13:49:42.004Z,15520
2016-11-17T13:50:54.044Z,15232
2016-11-17T13:52:06.501Z,15776
2016-11-17T13:53:20.070Z,15808
2016-11-17T13:54:33.111Z,16064
2016-11-17T13:55:45.099Z,12600
2016-11-17T13:56:58.181Z,11736
2016-11-17T13:58:11.210Z,8520
2016-11-17T13:59:23.713Z,17184
2016-11-17T14:00:35.685Z,17088
2016-11-17T14:01:48.760Z,15968
2016-11-17T14:03:01.772Z,16224
2016-11-17T14:04:14.791Z,12280
2016-11-17T14:05:27.310Z,11412
2016-11-17T14:06:40.400Z,16192
2016-11-17T14:07:53.456Z,16928
2016-11-17T14:09:06.036Z,9092
2016-11-17T14:10:19.138Z,8640
2016-11-17T14:11:31.697Z,10228
2016-11-17T14:12:44.697Z,11524
2016-11-17T14:13:56.686Z,15616
2016-11-17T14:15:09.163Z,15808
2016-11-17T14:16:52.790Z,15520
2016-11-17T14:18:04.701Z,14488
2016-11-17T14:19:17.197Z,13880
2016-11-17T14:20:29.147Z,13136
2016-11-17T14:21:42.187Z,13216
2016-11-17T14:22:54.727Z,13420
2016-11-17T14:24:06.758Z,12720
2016-11-17T14:25:19.752Z,12424
2016-11-17T14:26:33.335Z,11268
2016-11-17T14:27:45.791Z,8612
2016-11-17T14:28:58.277Z,10728
2016-11-17T14:30:10.229Z,9212
2016-11-17T14:31:21.695Z,8848
2016-11-17T14:32:34.648Z,11052
2016-11-17T14:33:47.146Z,11012
2016-11-17T14:35:00.155Z,10576
2016-11-17T14:36:13.693Z,10184
2016-11-17T14:37:26.135Z,9676
2016-11-17T14:38:37.049Z,9484
2016-11-17T14:39:50.062Z,9100
2016-11-17T14:41:03.126Z,8156
2016-11-17T14:42:15.668Z,10428
2016-11-17T14:43:29.281Z,9044
2016-11-17T14:44:41.309Z,8268
2016-11-17T14:45:53.927Z,8132
2016-11-17T14:47:05.872Z,8108
2016-11-17T14:48:18.915Z,10996
2016-11-17T14:49:31.906Z,10040
2016-11-17T14:50:44.382Z,8460
2016-11-17T14:51:56.312Z,8592
2016-11-17T14:53:09.342Z,11136
2016-11-17T14:54:22.404Z,11348
2016-11-17T14:55:35.438Z,11340
2016-11-17T14:56:47.975Z,10892
2016-11-17T14:57:59.962Z,8380
2016-11-17T14:59:12.956Z,7856
2016-11-17T15:00:25.462Z,7212
2016-11-17T15:01:38.438Z,7292
2016-11-17T15:02:51.471Z,7900
2016-11-17T15:04:05.037Z,8568
2016-11-17T15:05:17.009Z,8812
2016-11-17T15:06:30.037Z,8288
2016-11-17T15:07:41.465Z,9100
2016-11-17T15:08:54.472Z,8896
2016-11-17T15:10:06.470Z,8904
2016-11-17T15:11:18.946Z,9640
2016-11-17T15:12:31.905Z,10876
2016-11-17T15:13:44.947Z,11212
2016-11-17T15:14:58.511Z,10324
2016-11-17T15:16:11.027Z,9716
2016-11-17T15:17:23.524Z,9764
2016-11-17T15:18:36.527Z,9180
2016-11-17T15:19:49.030Z,6168
2016-11-17T15:21:01.528Z,6964
2016-11-17T15:22:13.543Z,6736
2016-11-17T15:23:27.085Z,6748
2016-11-17T15:24:39.546Z,7600
2016-11-17T15:25:53.080Z,10276
2016-11-17T15:27:06.650Z,10236
2016-11-17T15:28:18.590Z,7820
2016-11-17T15:29:31.649Z,10144
2016-11-17T15:30:44.662Z,9828
2016-11-17T15:31:57.643Z,10380
2016-11-17T15:33:10.078Z,10424
2016-11-17T15:34:23.148Z,10296
2016-11-17T15:35:36.191Z,9500
2016-11-17T15:36:49.207Z,9944
2016-11-17T15:38:02.775Z,10436
2016-11-17T15:39:15.280Z,10688
2016-11-17T15:40:28.259Z,10648
2016-11-17T15:41:41.389Z,10492
2016-11-17T15:42:53.901Z,8820
2016-11-17T15:44:06.877Z,9036
2016-11-17T15:45:19.390Z,9780
2016-11-17T15:46:31.968Z,9524
2016-11-17T15:47:45.538Z,7804
2016-11-17T15:48:58.015Z,7108
2016-11-17T15:50:10.034Z,7468
2016-11-17T15:51:23.074Z,9844
2016-11-17T15:52:35.006Z,9484
2016-11-17T15:53:46.960Z,9508
2016-11-17T15:54:58.907Z,9116
2016-11-17T15:56:11.383Z,8844
2016-11-17T15:57:24.411Z,7232
2016-11-17T15:58:36.911Z,7044
2016-11-17T15:59:49.935Z,7016
2016-11-17T16:01:03.540Z,7116
2016-11-17T16:02:16.027Z,7300
2016-11-17T16:03:29.540Z,10168
2016-11-17T16:04:43.051Z,10760
2016-11-17T16:05:56.059Z,11400
2016-11-17T16:07:09.064Z,11656
2016-11-17T16:08:20.549Z,11732
2016-11-17T16:09:33.063Z,11948
2016-11-17T16:10:46.137Z,11968
2016-11-17T16:11:59.235Z,9612
2016-11-17T16:13:11.707Z,11428
2016-11-17T16:14:24.242Z,10884
2016-11-17T16:15:36.184Z,10408
2016-11-17T16:16:49.222Z,9940
2016-11-17T16:18:02.315Z,7400
2016-11-17T16:19:15.287Z,9592
2016-11-17T16:20:27.858Z,7892
2016-11-17T16:21:40.882Z,9688
2016-11-17T16:22:53.888Z,8124
2016-11-17T16:24:05.316Z,10200
2016-11-17T16:25:18.827Z,7804
2016-11-17T16:26:31.843Z,7560
2016-11-17T16:27:44.350Z,7360
2016-11-17T16:28:57.403Z,7296
2016-11-17T16:30:09.943Z,7440
2016-11-17T16:31:22.982Z,7440
2016-11-17T16:32:35.482Z,7508
2016-11-17T16:33:48.021Z,7444
2016-11-17T16:35:01.542Z,7344
2016-11-17T16:36:14.001Z,7236
2016-11-17T16:37:27.083Z,9048
2016-11-17T16:38:39.095Z,7452
2016-11-17T16:39:52.093Z,9892
2016-11-17T16:41:36.227Z,8088
2016-11-17T16:42:48.227Z,10544
2016-11-17T16:44:00.215Z,7760
2016-11-17T16:45:13.244Z,7748
2016-11-17T16:46:26.795Z,7336
2016-11-17T16:47:38.795Z,9856
2016-11-17T16:48:51.357Z,7436
2016-11-17T16:50:03.814Z,6896
2016-11-17T16:51:16.275Z,9336
2016-11-17T16:54:12.932Z,9488
2016-11-17T16:55:25.979Z,9724
2016-11-17T16:56:37.411Z,9804
2016-11-17T16:57:49.905Z,8988
2016-11-17T16:59:02.929Z,7460
2016-11-17T17:00:15.407Z,10064
2016-11-17T17:01:28.422Z,10048
2016-11-17T17:02:41.452Z,9760
2016-11-17T17:03:53.371Z,9728
2016-11-17T17:05:06.946Z,9520